Time;durP1;ratioP1;P1;durP2;ratioP2;P2;SDS_P1;SDS_P2;PMS_P1;PMS_P2;Temp;Humidity;BMP_temperature;BMP_pressure;BME280_temperature;BME280_humidity;BME280_pressure;Samples;Min_cycle;Max_cycle;Signal;HPM_P1;HPM_P2
2022/06/05 00:00:16;;;;;;;14.32;12.63;;;;;;;;;;2080536;28;20592;-53
2022/06/05 00:01:20;;;;;;;16.65;13.73;;;;;;;;;;2074306;28;20203;-57
2022/06/05 00:02:30;;;;;;;17.27;15.52;;;;;;;;;;2074149;28;20212;-55
2022/06/05 00:03:37;;;;;;;21.75;16.02;;;;;;;;;;2074252;28;20149;-56
2022/06/05 00:04:40;;;;;;;15.38;13.82;;;;;;;;;;2076889;28;20926;-55
2022/06/05 00:06:15;;;;;;;13.63;12.25;;;;;;;;;;2082368;28;20590;-55
2022/06/05 00:07:34;;;;;;;14.68;12.15;;;;;;;;;;2064883;28;20186;-53
2022/06/05 00:08:37;;;;;;;13.85;12.20;;;;;;;;;;2064938;28;20170;-54
2022/06/05 00:09:40;;;;;;;19.90;17.80;;;;;;;;;;2071983;28;20226;-53
2022/06/05 00:10:51;;;;;;;14.73;12.45;;;;;;;;;;2082197;28;20548;-55
2022/06/05 00:12:03;;;;;;;13.20;11.93;;;;;;;;;;2082296;28;20625;-53
2022/06/05 00:13:09;;;;;;;14.40;11.30;;;;;;;;;;2082214;28;20176;-54
2022/06/05 00:14:09;;;;;;;13.48;10.70;;;;;;;;;;2081379;28;20153;-53
2022/06/05 00:15:10;;;;;;;12.88;11.57;;;;;;;;;;2077783;28;20564;-58
2022/06/05 00:16:11;;;;;;;13.40;11.48;;;;;;;;;;2073248;28;20173;-51
2022/06/05 00:17:13;;;;;;;14.40;11.40;;;;;;;;;;2077313;28;20604;-54
2022/06/05 00:18:14;;;;;;;12.25;11.15;;;;;;;;;;2074855;28;20177;-52
2022/06/05 00:19:14;;;;;;;14.57;11.35;;;;;;;;;;2073925;28;20347;-53
2022/06/05 00:20:15;;;;;;;13.63;10.93;;;;;;;;;;2073582;28;20177;-55
2022/06/05 00:21:15;;;;;;;12.27;11.02;;;;;;;;;;2073458;28;20180;-53
2022/06/05 00:22:16;;;;;;;13.48;10.93;;;;;;;;;;2074939;28;20181;-57
2022/06/05 00:23:16;;;;;;;12.60;10.90;;;;;;;;;;2082143;28;20259;-56
2022/06/05 00:24:17;;;;;;;13.60;10.48;;;;;;;;;;2080407;28;20188;-53
2022/06/05 00:25:17;;;;;;;12.10;10.15;;;;;;;;;;2074021;28;20588;-53
2022/06/05 00:26:20;;;;;;;11.95;10.77;;;;;;;;;;2073963;28;20177;-52
2022/06/05 00:27:39;;;;;;;11.73;10.52;;;;;;;;;;2073980;28;20534;-53
2022/06/05 00:28:58;;;;;;;14.18;11.07;;;;;;;;;;2074258;28;20593;-52
2022/06/05 00:30:01;;;;;;;11.88;10.48;;;;;;;;;;2080409;28;20191;-53
2022/06/05 00:31:20;;;;;;;12.48;10.02;;;;;;;;;;2082349;28;20513;-49
2022/06/05 00:32:23;;;;;;;12.70;10.85;;;;;;;;;;2082269;28;20180;-53
2022/06/05 00:33:29;;;;;;;12.50;10.93;;;;;;;;;;2081532;28;20180;-55
2022/06/05 00:34:29;;;;;;;12.13;10.75;;;;;;;;;;2073288;28;20165;-54
2022/06/05 00:35:34;;;;;;;13.27;11.02;;;;;;;;;;2074558;28;20176;-54
2022/06/05 00:36:34;;;;;;;11.65;10.43;;;;;;;;;;2077091;28;20189;-54
2022/06/05 00:37:40;;;;;;;11.07;9.98;;;;;;;;;;2076149;28;20211;-53
2022/06/05 00:38:47;;;;;;;12.15;10.88;;;;;;;;;;2074477;28;20181;-57
2022/06/05 00:40:08;;;;;;;11.90;10.68;;;;;;;;;;2074672;28;20192;-55
2022/06/05 00:41:23;;;;;;;11.65;10.50;;;;;;;;;;2076365;28;20260;-52
2022/06/05 00:42:25;;;;;;;12.23;10.73;;;;;;;;;;2075377;28;20149;-48
2022/06/05 00:43:26;;;;;;;13.57;10.68;;;;;;;;;;2075131;28;20216;-49
2022/06/05 00:44:39;;;;;;;12.25;11.07;;;;;;;;;;2075989;28;20260;-53
2022/06/05 00:45:40;;;;;;;11.73;10.52;;;;;;;;;;2075277;28;20189;-54
2022/06/05 00:46:41;;;;;;;12.88;11.57;;;;;;;;;;2075397;28;20176;-54
2022/06/05 00:47:43;;;;;;;13.27;11.48;;;;;;;;;;2075717;28;20775;-54
2022/06/05 00:48:45;;;;;;;12.02;10.77;;;;;;;;;;2075002;28;20181;-55
2022/06/05 00:49:55;;;;;;;11.95;10.73;;;;;;;;;;2076599;28;20197;-53
2022/06/05 00:50:56;;;;;;;12.02;10.75;;;;;;;;;;2082522;28;20284;-54
2022/06/05 00:51:56;;;;;;;13.07;10.48;;;;;;;;;;2083265;28;20188;-56
2022/06/05 00:52:58;;;;;;;12.45;10.63;;;;;;;;;;2083283;28;20164;-57
2022/06/05 00:53:59;;;;;;;11.90;10.55;;;;;;;;;;2083789;28;20177;-59
2022/06/05 00:55:00;;;;;;;12.43;10.75;;;;;;;;;;2084907;28;20764;-55
2022/06/05 00:56:00;;;;;;;13.23;10.38;;;;;;;;;;2083886;28;20216;-54
2022/06/05 00:57:00;;;;;;;13.35;10.90;;;;;;;;;;2082877;28;20170;-55
2022/06/05 00:58:01;;;;;;;11.20;10.13;;;;;;;;;;2091052;28;20243;-54
2022/06/05 00:59:01;;;;;;;12.65;10.65;;;;;;;;;;2082414;28;20655;-53
2022/06/05 01:00:08;;;;;;;12.90;11.60;;;;;;;;;;2082679;28;20200;-55
2022/06/05 01:01:09;;;;;;;11.98;10.77;;;;;;;;;;2082527;28;20184;-53
2022/06/05 01:02:10;;;;;;;13.98;11.63;;;;;;;;;;2082743;28;20196;-52
2022/06/05 01:03:11;;;;;;;12.35;11.10;;;;;;;;;;2082111;28;20164;-54
2022/06/05 01:04:12;;;;;;;15.43;11.15;;;;;;;;;;2081876;28;20188;-57
2022/06/05 01:05:13;;;;;;;13.85;11.32;;;;;;;;;;2082542;28;20203;-56
2022/06/05 01:06:14;;;;;;;14.10;11.30;;;;;;;;;;2082372;28;20184;-56
2022/06/05 01:07:14;;;;;;;15.80;11.50;;;;;;;;;;2082878;28;20169;-54
2022/06/05 01:08:16;;;;;;;12.75;11.45;;;;;;;;;;2082445;28;20172;-57
2022/06/05 01:09:16;;;;;;;13.60;11.90;;;;;;;;;;2082138;28;20176;-55
2022/06/05 01:10:17;;;;;;;13.38;10.88;;;;;;;;;;2095570;22;20233;-57
2022/06/05 01:11:20;;;;;;;13.43;11.52;;;;;;;;;;2073832;28;20218;-54
2022/06/05 01:12:32;;;;;;;12.60;11.38;;;;;;;;;;2075103;28;20160;-58
2022/06/05 01:13:38;;;;;;;12.38;11.10;;;;;;;;;;2079661;28;20203;-56
2022/06/05 01:14:45;;;;;;;11.68;10.60;;;;;;;;;;2068511;28;20169;-55
2022/06/05 01:15:45;;;;;;;13.95;11.48;;;;;;;;;;2072950;28;20177;-54
2022/06/05 01:16:49;;;;;;;11.32;10.13;;;;;;;;;;2074289;28;20302;-55
2022/06/05 01:17:55;;;;;;;11.65;10.32;;;;;;;;;;2081143;28;20172;-54
2022/06/05 01:18:56;;;;;;;10.65;9.65;;;;;;;;;;2077041;28;20184;-55
2022/06/05 01:20:03;;;;;;;11.43;10.32;;;;;;;;;;2072227;28;20880;-59
2022/06/05 01:21:22;;;;;;;12.20;11.00;;;;;;;;;;2072954;28;20161;-54
2022/06/05 01:22:31;;;;;;;11.15;10.02;;;;;;;;;;2072550;28;20196;-54
2022/06/05 01:23:43;;;;;;;13.43;10.77;;;;;;;;;;2073261;28;20264;-57
2022/06/05 01:24:57;;;;;;;11.02;9.85;;;;;;;;;;2072628;28;20168;-56
2022/06/05 01:25:57;;;;;;;13.85;10.73;;;;;;;;;;2073503;28;20745;-55
2022/06/05 01:27:01;;;;;;;12.73;10.15;;;;;;;;;;2072663;28;20173;-58
2022/06/05 01:28:10;;;;;;;15.13;12.60;;;;;;;;;;2072189;28;20662;-56
2022/06/05 01:29:16;;;;;;;15.55;13.43;;;;;;;;;;2073168;28;20187;-52
2022/06/05 01:30:18;;;;;;;13.52;11.98;;;;;;;;;;2073515;28;20205;-55
2022/06/05 01:31:20;;;;;;;11.00;9.90;;;;;;;;;;2071738;28;20169;-57
2022/06/05 01:32:24;;;;;;;13.18;11.50;;;;;;;;;;2073363;28;20559;-57
2022/06/05 01:33:26;;;;;;;11.88;10.60;;;;;;;;;;2073402;28;20173;-56
2022/06/05 01:34:29;;;;;;;18.63;16.38;;;;;;;;;;2072411;28;20682;-53
2022/06/05 01:35:34;;;;;;;15.38;13.88;;;;;;;;;;2073639;28;20181;-53
2022/06/05 01:36:50;;;;;;;17.27;14.07;;;;;;;;;;2073549;28;20183;-56
2022/06/05 01:37:54;;;;;;;16.75;15.07;;;;;;;;;;2073461;28;20706;-55
2022/06/05 01:38:57;;;;;;;11.23;9.68;;;;;;;;;;2072508;28;20185;-57
2022/06/05 01:40:07;;;;;;;11.18;10.10;;;;;;;;;;2073636;28;20248;-57
2022/06/05 01:41:23;;;;;;;10.88;9.55;;;;;;;;;;2073520;28;20161;-55
2022/06/05 01:42:44;;;;;;;11.93;10.75;;;;;;;;;;2073650;28;20229;-55
2022/06/05 01:43:47;;;;;;;11.13;9.55;;;;;;;;;;2072959;28;20192;-54
2022/06/05 01:44:49;;;;;;;10.57;9.32;;;;;;;;;;2071527;28;20165;-55
2022/06/05 01:45:58;;;;;;;12.63;10.57;;;;;;;;;;2073275;28;20169;-53
2022/06/05 01:47:03;;;;;;;10.70;9.50;;;;;;;;;;2073459;28;20215;-54
2022/06/05 01:48:05;;;;;;;10.90;9.50;;;;;;;;;;2073439;28;20181;-54
2022/06/05 01:49:11;;;;;;;10.27;9.32;;;;;;;;;;2073169;28;20173;-55
2022/06/05 01:50:17;;;;;;;10.18;9.25;;;;;;;;;;2078841;28;20200;-56
2022/06/05 01:51:24;;;;;;;10.75;9.60;;;;;;;;;;2073574;28;20212;-58
2022/06/05 01:52:27;;;;;;;10.90;9.80;;;;;;;;;;2072399;28;20183;-54
2022/06/05 01:53:40;;;;;;;10.73;9.60;;;;;;;;;;2073105;28;20268;-54
2022/06/05 01:54:42;;;;;;;11.80;9.05;;;;;;;;;;2072540;28;20248;-54
2022/06/05 01:56:01;;;;;;;11.93;10.20;;;;;;;;;;2073436;28;20662;-57
2022/06/05 01:57:05;;;;;;;11.27;9.65;;;;;;;;;;2073425;28;20177;-54
2022/06/05 01:58:07;;;;;;;11.48;9.07;;;;;;;;;;2073368;28;20223;-55
2022/06/05 01:59:13;;;;;;;10.13;9.05;;;;;;;;;;2073485;28;20160;-53
2022/06/05 02:00:19;;;;;;;10.70;9.70;;;;;;;;;;2065063;28;20586;-57
2022/06/05 02:01:22;;;;;;;12.35;10.18;;;;;;;;;;2065104;28;20178;-58
2022/06/05 02:02:27;;;;;;;10.18;9.05;;;;;;;;;;2065094;28;20181;-56
2022/06/05 02:03:30;;;;;;;10.20;9.25;;;;;;;;;;2065427;28;20173;-55
2022/06/05 02:04:30;;;;;;;11.75;8.93;;;;;;;;;;2066945;28;21871;-53
2022/06/05 02:05:51;;;;;;;10.15;9.13;;;;;;;;;;2073153;28;20185;-56
2022/06/05 02:06:53;;;;;;;10.35;9.38;;;;;;;;;;2072652;28;20187;-56
2022/06/05 02:08:00;;;;;;;12.25;9.27;;;;;;;;;;2073328;28;20283;-53
2022/06/05 02:09:04;;;;;;;10.68;9.52;;;;;;;;;;2072577;28;20173;-53
2022/06/05 02:10:09;;;;;;;13.50;9.90;;;;;;;;;;2072181;28;20599;-54
2022/06/05 02:11:14;;;;;;;10.20;9.15;;;;;;;;;;2073311;28;20173;-55
2022/06/05 02:12:14;;;;;;;10.40;9.40;;;;;;;;;;2072904;28;20192;-54
2022/06/05 02:13:15;;;;;;;11.75;9.25;;;;;;;;;;2072659;28;20645;-56
2022/06/05 02:14:15;;;;;;;11.15;9.82;;;;;;;;;;2072101;28;20201;-56
2022/06/05 02:15:15;;;;;;;10.50;9.25;;;;;;;;;;2073199;28;20177;-57
2022/06/05 02:16:16;;;;;;;11.30;9.40;;;;;;;;;;2075508;28;20744;-55
2022/06/05 02:17:16;;;;;;;9.70;8.80;;;;;;;;;;2076662;28;20185;-56
2022/06/05 02:18:17;;;;;;;9.90;8.93;;;;;;;;;;2076171;28;20181;-57
2022/06/05 02:19:18;;;;;;;10.48;9.35;;;;;;;;;;2075840;28;20197;-58
2022/06/05 02:20:19;;;;;;;10.20;9.20;;;;;;;;;;2076099;28;20254;-57
2022/06/05 02:21:19;;;;;;;9.82;8.93;;;;;;;;;;2075715;28;20169;-57
2022/06/05 02:22:22;;;;;;;9.50;8.70;;;;;;;;;;2076037;28;20181;-55
2022/06/05 02:23:24;;;;;;;10.88;9.80;;;;;;;;;;2067405;28;20632;-55
2022/06/05 02:24:24;;;;;;;14.60;10.07;;;;;;;;;;2074383;28;20181;-53
2022/06/05 02:25:25;;;;;;;10.90;9.80;;;;;;;;;;2075147;28;20196;-56
2022/06/05 02:26:26;;;;;;;11.15;9.55;;;;;;;;;;2075187;28;20673;-55
2022/06/05 02:27:27;;;;;;;12.73;10.02;;;;;;;;;;2075760;28;20168;-56
2022/06/05 02:28:27;;;;;;;10.93;9.75;;;;;;;;;;2075351;28;20188;-55
2022/06/05 02:29:28;;;;;;;10.38;9.27;;;;;;;;;;2075370;28;20234;-54
2022/06/05 02:30:38;;;;;;;10.88;9.75;;;;;;;;;;2076084;28;20181;-53
2022/06/05 02:31:50;;;;;;;10.85;9.85;;;;;;;;;;2076107;28;20223;-56
2022/06/05 02:33:02;;;;;;;10.57;9.43;;;;;;;;;;2075382;28;20169;-54
2022/06/05 02:34:03;;;;;;;11.15;9.23;;;;;;;;;;2074147;28;20168;-54
2022/06/05 02:35:12;;;;;;;12.50;10.57;;;;;;;;;;2075665;28;20192;-54
2022/06/05 02:36:21;;;;;;;9.65;8.70;;;;;;;;;;2076006;28;20164;-55
2022/06/05 02:37:24;;;;;;;10.77;9.68;;;;;;;;;;2075349;28;20167;-55
2022/06/05 02:38:47;;;;;;;9.85;8.95;;;;;;;;;;2067674;28;20177;-54
2022/06/05 02:40:03;;;;;;;9.55;8.57;;;;;;;;;;2070718;28;20180;-57
2022/06/05 02:41:07;;;;;;;10.65;9.02;;;;;;;;;;2068672;28;20161;-54
2022/06/05 02:42:07;;;;;;;9.82;8.93;;;;;;;;;;2069857;28;20189;-57
2022/06/05 02:43:13;;;;;;;10.43;9.43;;;;;;;;;;2071616;28;20165;-57
2022/06/05 02:44:29;;;;;;;9.88;8.68;;;;;;;;;;2070396;28;20162;-56
2022/06/05 02:45:40;;;;;;;9.30;8.52;;;;;;;;;;2071761;28;20169;-57
2022/06/05 02:46:46;;;;;;;10.15;9.15;;;;;;;;;;2072490;28;20169;-57
2022/06/05 02:47:46;;;;;;;10.95;9.82;;;;;;;;;;2079561;28;20196;-55
2022/06/05 02:48:47;;;;;;;10.77;9.73;;;;;;;;;;2080141;28;20586;-55
2022/06/05 02:49:55;;;;;;;9.38;8.13;;;;;;;;;;2082326;28;20568;-58
2022/06/05 02:51:05;;;;;;;9.75;8.85;;;;;;;;;;2081079;28;20181;-56
2022/06/05 02:52:05;;;;;;;10.18;9.18;;;;;;;;;;2079623;28;20168;-58
2022/06/05 02:53:07;;;;;;;11.52;9.27;;;;;;;;;;2079415;28;20172;-58
2022/06/05 02:54:07;;;;;;;10.23;9.23;;;;;;;;;;2070689;28;20196;-57
2022/06/05 02:55:09;;;;;;;10.75;9.75;;;;;;;;;;2077436;28;20168;-57
2022/06/05 02:56:10;;;;;;;9.27;8.38;;;;;;;;;;2078140;28;20188;-56
2022/06/05 02:57:10;;;;;;;10.05;9.07;;;;;;;;;;2077396;28;20959;-56
2022/06/05 02:58:11;;;;;;;9.45;8.65;;;;;;;;;;2078003;28;20626;-56
2022/06/05 02:59:12;;;;;;;9.63;8.68;;;;;;;;;;2078724;28;20168;-54
2022/06/05 03:00:14;;;;;;;10.65;9.57;;;;;;;;;;2078687;28;20689;-59
2022/06/05 03:03:53;;;;;;;9.77;8.77;;;;;;;;;;2076728;28;20187;-56
2022/06/05 03:04:53;;;;;;;9.80;8.75;;;;;;;;;;2076731;28;20229;-56
2022/06/05 03:05:54;;;;;;;9.68;8.70;;;;;;;;;;2078034;28;20203;-57
2022/06/05 03:06:54;;;;;;;9.65;8.75;;;;;;;;;;2078294;28;20172;-58
2022/06/05 03:07:55;;;;;;;9.68;8.88;;;;;;;;;;2078179;28;20633;-56
2022/06/05 03:08:56;;;;;;;9.07;8.20;;;;;;;;;;2078124;28;20177;-58
2022/06/05 03:09:56;;;;;;;9.98;8.27;;;;;;;;;;2077179;28;20169;-57
2022/06/05 03:10:56;;;;;;;9.88;8.90;;;;;;;;;;2077010;28;20675;-58
2022/06/05 03:11:57;;;;;;;9.85;8.82;;;;;;;;;;2078057;28;20554;-57
2022/06/05 03:12:57;;;;;;;9.27;8.15;;;;;;;;;;2078012;28;20165;-57
2022/06/05 03:13:58;;;;;;;10.00;8.95;;;;;;;;;;2077444;28;20261;-55
2022/06/05 03:15:01;;;;;;;10.05;9.15;;;;;;;;;;2076623;28;20232;-58
2022/06/05 03:16:01;;;;;;;9.68;8.68;;;;;;;;;;2077399;28;20191;-56
2022/06/05 03:17:02;;;;;;;9.32;8.52;;;;;;;;;;2078083;28;20168;-57
2022/06/05 03:18:03;;;;;;;9.77;8.80;;;;;;;;;;2077662;28;20164;-56
2022/06/05 03:19:03;;;;;;;10.55;9.23;;;;;;;;;;2078073;28;20196;-56
2022/06/05 03:20:04;;;;;;;11.90;9.32;;;;;;;;;;2077238;28;20197;-57
2022/06/05 03:21:04;;;;;;;10.45;9.48;;;;;;;;;;2077830;28;20161;-58
2022/06/05 03:22:05;;;;;;;9.63;8.63;;;;;;;;;;2077927;28;20165;-56
2022/06/05 03:23:09;;;;;;;9.73;8.75;;;;;;;;;;2076814;28;20185;-58
2022/06/05 03:24:09;;;;;;;9.95;9.05;;;;;;;;;;2077878;28;20161;-56
2022/06/05 03:25:14;;;;;;;9.88;8.85;;;;;;;;;;2077382;28;20199;-57
2022/06/05 03:26:14;;;;;;;9.48;8.57;;;;;;;;;;2077279;28;20777;-56
2022/06/05 03:27:15;;;;;;;9.77;8.88;;;;;;;;;;2082963;28;20222;-57
2022/06/05 03:28:15;;;;;;;10.23;9.23;;;;;;;;;;2084837;28;20176;-57
2022/06/05 03:29:15;;;;;;;9.55;8.52;;;;;;;;;;2085711;28;20715;-57
2022/06/05 03:30:16;;;;;;;10.00;9.02;;;;;;;;;;2086224;28;20291;-56
2022/06/05 03:31:16;;;;;;;9.90;8.90;;;;;;;;;;2078119;28;20165;-55
2022/06/05 03:32:17;;;;;;;9.82;8.85;;;;;;;;;;2077587;28;20228;-57
2022/06/05 03:33:17;;;;;;;10.45;9.45;;;;;;;;;;2077171;28;20173;-57
2022/06/05 03:34:17;;;;;;;9.57;8.63;;;;;;;;;;2069793;28;20169;-55
2022/06/05 03:35:18;;;;;;;10.27;9.25;;;;;;;;;;2076294;28;20204;-58
2022/06/05 03:36:18;;;;;;;12.43;8.75;;;;;;;;;;2076775;28;20172;-57
2022/06/05 03:37:19;;;;;;;9.10;8.20;;;;;;;;;;2076067;28;20181;-58
2022/06/05 03:38:19;;;;;;;8.65;7.95;;;;;;;;;;2076281;28;20255;-59
2022/06/05 03:39:19;;;;;;;9.45;8.65;;;;;;;;;;2077149;28;20169;-57
2022/06/05 03:40:20;;;;;;;9.80;8.73;;;;;;;;;;2076519;28;20200;-56
2022/06/05 03:41:20;;;;;;;9.50;8.60;;;;;;;;;;2076930;28;20169;-57
2022/06/05 03:42:20;;;;;;;10.55;8.57;;;;;;;;;;2076765;28;20184;-57
2022/06/05 03:43:21;;;;;;;9.52;8.20;;;;;;;;;;2075532;28;20169;-56
2022/06/05 03:44:21;;;;;;;9.55;8.55;;;;;;;;;;2073562;28;21087;-59
2022/06/05 03:45:22;;;;;;;9.45;8.65;;;;;;;;;;2074674;28;20181;-56
2022/06/05 03:46:22;;;;;;;9.60;8.73;;;;;;;;;;2074858;28;20177;-56
2022/06/05 03:47:22;;;;;;;9.30;8.40;;;;;;;;;;2074893;28;20646;-59
2022/06/05 03:48:23;;;;;;;8.90;8.00;;;;;;;;;;2075157;28;20664;-56
2022/06/05 03:49:23;;;;;;;9.73;8.48;;;;;;;;;;2074534;28;20185;-57
2022/06/05 03:50:24;;;;;;;9.55;8.45;;;;;;;;;;2081417;28;20204;-56
2022/06/05 03:51:24;;;;;;;8.80;8.10;;;;;;;;;;2073986;28;20218;-57
2022/06/05 03:52:24;;;;;;;9.30;8.40;;;;;;;;;;2074198;28;20568;-56
2022/06/05 03:53:24;;;;;;;9.50;8.63;;;;;;;;;;2074623;28;20721;-57
2022/06/05 03:54:25;;;;;;;9.35;8.55;;;;;;;;;;2073801;28;20173;-58
2022/06/05 03:55:25;;;;;;;9.68;8.68;;;;;;;;;;2074083;28;20173;-58
2022/06/05 03:56:27;;;;;;;10.13;9.10;;;;;;;;;;2073956;28;20632;-54
2022/06/05 03:57:27;;;;;;;9.02;8.18;;;;;;;;;;2075069;28;20176;-59
2022/06/05 03:58:27;;;;;;;9.43;8.43;;;;;;;;;;2074914;28;20176;-55
2022/06/05 03:59:28;;;;;;;8.52;7.82;;;;;;;;;;2074828;28;20181;-56
2022/06/05 04:00:28;;;;;;;10.35;8.25;;;;;;;;;;2074714;28;20272;-57
2022/06/05 04:01:28;;;;;;;9.27;8.48;;;;;;;;;;2074725;28;20172;-56
2022/06/05 04:02:29;;;;;;;8.52;7.80;;;;;;;;;;2074040;28;20643;-56
2022/06/05 04:03:29;;;;;;;8.55;7.85;;;;;;;;;;2074216;28;20165;-56
2022/06/05 04:04:29;;;;;;;8.85;8.05;;;;;;;;;;2073467;28;20204;-54
2022/06/05 04:05:30;;;;;;;9.98;8.98;;;;;;;;;;2074473;28;20676;-55
2022/06/05 04:06:31;;;;;;;8.77;7.93;;;;;;;;;;2066440;28;20193;-56
2022/06/05 04:07:31;;;;;;;8.20;7.50;;;;;;;;;;2066687;28;20180;-56
2022/06/05 04:08:32;;;;;;;8.50;7.80;;;;;;;;;;2066109;28;20200;-57
2022/06/05 04:09:32;;;;;;;8.82;8.02;;;;;;;;;;2066195;28;20208;-58
2022/06/05 04:10:33;;;;;;;8.55;7.70;;;;;;;;;;2066316;28;20209;-56
2022/06/05 04:11:35;;;;;;;8.93;7.50;;;;;;;;;;2074180;28;20213;-56
2022/06/05 04:12:36;;;;;;;8.90;8.02;;;;;;;;;;2073538;28;20296;-55
2022/06/05 04:13:36;;;;;;;8.95;8.15;;;;;;;;;;2073922;28;20193;-56
2022/06/05 04:14:37;;;;;;;9.30;8.32;;;;;;;;;;2073035;28;20184;-55
2022/06/05 04:15:39;;;;;;;9.57;8.18;;;;;;;;;;2074291;28;20173;-57
2022/06/05 04:16:40;;;;;;;9.52;8.73;;;;;;;;;;2074007;28;20212;-56
2022/06/05 04:17:41;;;;;;;8.77;8.05;;;;;;;;;;2074415;28;20181;-56
2022/06/05 04:18:42;;;;;;;7.93;7.13;;;;;;;;;;2069137;28;20177;-56
2022/06/05 04:19:42;;;;;;;8.25;7.55;;;;;;;;;;2067550;28;20165;-54
2022/06/05 04:20:43;;;;;;;8.35;7.55;;;;;;;;;;2074055;28;20219;-55
2022/06/05 04:21:44;;;;;;;9.07;8.25;;;;;;;;;;2074329;28;20191;-57
2022/06/05 04:22:44;;;;;;;9.05;8.18;;;;;;;;;;2074139;28;20173;-55
2022/06/05 04:23:45;;;;;;;9.00;8.20;;;;;;;;;;2074018;28;20204;-55
2022/06/05 04:24:45;;;;;;;8.77;7.75;;;;;;;;;;2072910;28;20164;-57
2022/06/05 04:25:46;;;;;;;8.63;7.82;;;;;;;;;;2074096;28;20165;-58
2022/06/05 04:26:46;;;;;;;9.63;7.97;;;;;;;;;;2074188;28;20177;-55
2022/06/05 04:27:46;;;;;;;8.60;7.80;;;;;;;;;;2074040;28;20231;-58
2022/06/05 04:28:47;;;;;;;8.50;7.68;;;;;;;;;;2074347;28;20180;-56
2022/06/05 04:29:47;;;;;;;9.05;7.65;;;;;;;;;;2073769;28;20652;-59
2022/06/05 04:30:48;;;;;;;8.98;8.13;;;;;;;;;;2075938;28;20177;-55
2022/06/05 04:31:49;;;;;;;8.10;7.28;;;;;;;;;;2080569;28;20176;-56
2022/06/05 04:32:49;;;;;;;8.57;7.40;;;;;;;;;;2076356;28;20188;-54
2022/06/05 04:33:50;;;;;;;8.63;7.82;;;;;;;;;;2079857;28;20184;-55
2022/06/05 04:34:51;;;;;;;8.35;7.55;;;;;;;;;;2073164;28;20201;-57
2022/06/05 04:35:51;;;;;;;8.48;7.78;;;;;;;;;;2076099;28;20181;-55
2022/06/05 04:36:52;;;;;;;9.32;8.50;;;;;;;;;;2082279;28;20203;-56
2022/06/05 04:37:52;;;;;;;8.50;7.65;;;;;;;;;;2082237;28;20167;-57
2022/06/05 04:38:53;;;;;;;8.15;7.50;;;;;;;;;;2082233;28;20557;-56
2022/06/05 04:39:53;;;;;;;9.45;8.55;;;;;;;;;;2079097;28;20220;-54
2022/06/05 04:40:53;;;;;;;8.68;7.78;;;;;;;;;;2074000;28;20179;-55
2022/06/05 04:41:54;;;;;;;8.77;7.90;;;;;;;;;;2073997;28;20157;-54
2022/06/05 04:42:54;;;;;;;8.32;7.53;;;;;;;;;;2073335;28;20187;-55
2022/06/05 04:43:55;;;;;;;8.60;7.75;;;;;;;;;;2072883;28;20161;-56
2022/06/05 04:44:55;;;;;;;8.82;8.02;;;;;;;;;;2073035;28;20604;-56
2022/06/05 04:45:55;;;;;;;8.60;7.80;;;;;;;;;;2073869;28;20643;-57
2022/06/05 04:46:56;;;;;;;8.65;7.70;;;;;;;;;;2074473;28;20179;-56
2022/06/05 04:47:56;;;;;;;8.35;7.55;;;;;;;;;;2076848;28;20251;-56
2022/06/05 04:48:56;;;;;;;8.00;7.30;;;;;;;;;;2076329;28;20183;-58
2022/06/05 04:49:57;;;;;;;8.15;7.32;;;;;;;;;;2079636;28;20172;-58
2022/06/05 04:50:58;;;;;;;8.20;7.38;;;;;;;;;;2081165;28;20311;-57
2022/06/05 04:51:58;;;;;;;8.88;7.97;;;;;;;;;;2076569;28;20196;-59
2022/06/05 04:52:58;;;;;;;7.60;7.00;;;;;;;;;;2077094;28;20259;-59
2022/06/05 04:54:01;;;;;;;9.48;8.52;;;;;;;;;;2075757;28;20169;-57
2022/06/05 04:55:02;;;;;;;8.05;7.22;;;;;;;;;;2075036;28;20668;-55
2022/06/05 04:56:03;;;;;;;8.52;7.82;;;;;;;;;;2074605;28;20183;-54
2022/06/05 04:57:04;;;;;;;8.77;7.93;;;;;;;;;;2074336;28;20741;-53
2022/06/05 04:58:05;;;;;;;8.23;7.53;;;;;;;;;;2074003;28;20208;-54
2022/06/05 04:59:05;;;;;;;9.80;7.80;;;;;;;;;;2074034;28;20183;-53
2022/06/05 05:00:06;;;;;;;8.60;7.65;;;;;;;;;;2073897;28;20192;-54
2022/06/05 05:01:13;;;;;;;8.48;7.78;;;;;;;;;;2073898;28;20169;-55
2022/06/05 05:02:14;;;;;;;8.32;7.65;;;;;;;;;;2073826;28;20252;-54
2022/06/05 05:03:14;;;;;;;8.93;7.75;;;;;;;;;;2074212;28;20596;-57
2022/06/05 05:04:14;;;;;;;8.52;7.78;;;;;;;;;;2073162;28;20172;-54
2022/06/05 05:05:15;;;;;;;7.53;6.93;;;;;;;;;;2073167;28;20181;-54
2022/06/05 05:06:16;;;;;;;8.85;8.00;;;;;;;;;;2073971;28;20672;-54
2022/06/05 05:07:16;;;;;;;8.65;7.88;;;;;;;;;;2073923;28;20173;-57
2022/06/05 05:08:17;;;;;;;8.68;7.78;;;;;;;;;;2074131;28;20177;-57
2022/06/05 05:09:17;;;;;;;7.68;6.82;;;;;;;;;;2073771;28;20165;-56
2022/06/05 05:10:17;;;;;;;7.97;7.28;;;;;;;;;;2073636;28;20280;-58
2022/06/05 05:11:19;;;;;;;9.20;7.90;;;;;;;;;;2073276;28;20180;-56
2022/06/05 05:12:19;;;;;;;8.38;7.57;;;;;;;;;;2073136;28;20254;-56
2022/06/05 05:13:19;;;;;;;8.30;7.45;;;;;;;;;;2072960;28;20593;-54
2022/06/05 05:14:20;;;;;;;7.95;7.30;;;;;;;;;;2072332;28;20208;-54
2022/06/05 05:15:20;;;;;;;7.90;7.20;;;;;;;;;;2073777;28;20199;-56
2022/06/05 05:16:21;;;;;;;7.68;6.93;;;;;;;;;;2074106;28;20184;-56
2022/06/05 05:17:21;;;;;;;8.57;7.78;;;;;;;;;;2073696;28;20252;-55
2022/06/05 05:18:22;;;;;;;8.05;7.25;;;;;;;;;;2073792;28;20538;-57
2022/06/05 05:19:23;;;;;;;8.13;7.43;;;;;;;;;;2073624;28;20260;-58
2022/06/05 05:20:24;;;;;;;7.68;7.07;;;;;;;;;;2073228;28;20590;-53
2022/06/05 05:21:26;;;;;;;7.85;7.07;;;;;;;;;;2073203;28;20705;-53
2022/06/05 05:22:26;;;;;;;8.23;7.53;;;;;;;;;;2073890;28;20172;-55
2022/06/05 05:23:26;;;;;;;8.23;7.43;;;;;;;;;;2073846;28;20281;-56
2022/06/05 05:24:27;;;;;;;8.25;7.55;;;;;;;;;;2073563;28;20169;-56
2022/06/05 05:25:27;;;;;;;7.80;7.05;;;;;;;;;;2072600;28;20180;-57
2022/06/05 05:26:29;;;;;;;8.60;7.75;;;;;;;;;;2074119;28;20169;-55
2022/06/05 05:27:30;;;;;;;9.05;7.05;;;;;;;;;;2074249;28;20533;-54
2022/06/05 05:28:30;;;;;;;8.10;7.35;;;;;;;;;;2074463;28;20179;-56
2022/06/05 05:29:30;;;;;;;8.20;7.40;;;;;;;;;;2074538;28;20185;-56
2022/06/05 05:30:30;;;;;;;7.82;7.22;;;;;;;;;;2075585;28;20209;-58
2022/06/05 05:31:32;;;;;;;10.00;7.78;;;;;;;;;;2075713;28;20208;-57
2022/06/05 05:32:33;;;;;;;7.38;6.82;;;;;;;;;;2073874;28;20587;-58
2022/06/05 05:33:33;;;;;;;7.72;7.03;;;;;;;;;;2071434;28;20165;-58
2022/06/05 05:34:33;;;;;;;9.75;7.82;;;;;;;;;;2069276;28;20229;-57
2022/06/05 05:35:34;;;;;;;7.97;7.38;;;;;;;;;;2073202;28;20180;-59
2022/06/05 05:36:34;;;;;;;8.32;7.63;;;;;;;;;;2074052;28;20200;-57
2022/06/05 05:37:35;;;;;;;7.63;6.97;;;;;;;;;;2074153;28;20653;-56
2022/06/05 05:38:36;;;;;;;7.65;6.90;;;;;;;;;;2073868;28;20188;-57
2022/06/05 05:42:14;;;;;;;9.27;8.35;;;;;;;;;;2074529;28;20255;-56
2022/06/05 05:43:15;;;;;;;7.95;7.25;;;;;;;;;;2073956;28;20165;-57
2022/06/05 05:44:16;;;;;;;8.10;7.45;;;;;;;;;;2073747;28;20642;-57
2022/06/05 05:45:16;;;;;;;8.00;7.40;;;;;;;;;;2074310;28;20672;-53
2022/06/05 05:46:17;;;;;;;8.05;7.15;;;;;;;;;;2071781;28;20173;-58
2022/06/05 05:47:22;;;;;;;7.32;6.72;;;;;;;;;;2073502;28;20196;-57
2022/06/05 05:48:22;;;;;;;7.78;7.05;;;;;;;;;;2073064;28;20732;-56
2022/06/05 05:49:23;;;;;;;7.15;6.53;;;;;;;;;;2074535;28;20165;-56
2022/06/05 05:50:23;;;;;;;7.65;6.95;;;;;;;;;;2084471;28;20199;-56
2022/06/05 05:51:23;;;;;;;6.90;6.38;;;;;;;;;;2078865;28;20165;-56
2022/06/05 05:52:25;;;;;;;8.20;6.63;;;;;;;;;;2069484;28;20677;-54
2022/06/05 05:53:25;;;;;;;9.73;7.65;;;;;;;;;;2070415;28;20200;-53
2022/06/05 05:54:25;;;;;;;7.93;7.22;;;;;;;;;;2080105;28;20175;-58
2022/06/05 05:55:25;;;;;;;7.43;6.70;;;;;;;;;;2081365;28;20199;-56
2022/06/05 05:56:26;;;;;;;7.65;7.00;;;;;;;;;;2073152;28;20291;-56
2022/06/05 05:57:26;;;;;;;7.38;6.72;;;;;;;;;;2068243;28;20169;-56
2022/06/05 05:58:27;;;;;;;8.27;7.43;;;;;;;;;;2065252;28;20261;-56
2022/06/05 05:59:27;;;;;;;7.47;6.70;;;;;;;;;;2065325;28;20700;-54
2022/06/05 06:00:27;;;;;;;7.32;6.63;;;;;;;;;;2065312;28;20217;-55
2022/06/05 06:01:27;;;;;;;7.22;6.25;;;;;;;;;;2064542;28;20264;-59
2022/06/05 06:02:28;;;;;;;7.38;6.07;;;;;;;;;;2064677;28;20181;-53
2022/06/05 06:03:28;;;;;;;8.00;7.10;;;;;;;;;;2064632;28;20555;-58
2022/06/05 06:04:29;;;;;;;7.88;7.07;;;;;;;;;;2068309;28;20200;-53
2022/06/05 06:05:30;;;;;;;6.45;5.93;;;;;;;;;;2073391;28;20574;-56
2022/06/05 06:06:32;;;;;;;7.78;7.13;;;;;;;;;;2073282;28;20242;-55
2022/06/05 06:07:33;;;;;;;7.28;6.78;;;;;;;;;;2071994;28;20188;-53
2022/06/05 06:08:34;;;;;;;7.10;6.50;;;;;;;;;;2071737;28;20169;-54
2022/06/05 06:09:34;;;;;;;6.88;6.28;;;;;;;;;;2069893;28;20285;-55
2022/06/05 06:10:35;;;;;;;7.07;6.47;;;;;;;;;;2072533;28;20219;-56
2022/06/05 06:11:35;;;;;;;7.60;6.97;;;;;;;;;;2073226;28;20223;-56
2022/06/05 06:12:35;;;;;;;6.13;5.63;;;;;;;;;;2073490;28;20653;-52
2022/06/05 06:13:36;;;;;;;7.65;7.05;;;;;;;;;;2073788;28;20659;-56
2022/06/05 06:14:37;;;;;;;7.32;6.72;;;;;;;;;;2071119;28;20201;-52
2022/06/05 06:15:37;;;;;;;7.53;6.03;;;;;;;;;;2064712;28;20251;-55
2022/06/05 06:16:37;;;;;;;7.65;6.95;;;;;;;;;;2065614;28;20220;-57